createdAt,value
2022-11-19T00:01:28.273Z,-0.31
2022-11-19T00:03:55.986Z,-0.34
2022-11-19T00:06:27.747Z,-0.32
2022-11-19T00:08:55.390Z,-0.33
2022-11-19T00:11:43.650Z,-0.32
2022-11-19T00:14:12.767Z,-0.35
2022-11-19T00:16:40.098Z,-0.34
2022-11-19T00:19:07.555Z,-0.32
2022-11-19T00:21:34.630Z,-0.31
2022-11-19T00:24:01.908Z,-0.33
2022-11-19T00:26:29.036Z,-0.34
2022-11-19T00:28:56.288Z,-0.33
2022-11-19T00:31:23.726Z,-0.33
2022-11-19T00:33:51.020Z,-0.34
2022-11-19T00:36:18.201Z,-0.34
2022-11-19T00:38:45.426Z,-0.36
2022-11-19T00:41:12.834Z,-0.38
2022-11-19T00:43:49.461Z,-0.35
2022-11-19T00:46:27.669Z,-0.33
2022-11-19T00:48:57.016Z,-0.27
2022-11-19T00:51:26.681Z,-0.23
2022-11-19T00:53:54.034Z,-0.21
2022-11-19T00:56:24.948Z,-0.18
2022-11-19T00:58:52.323Z,-0.15
2022-11-19T01:01:21.952Z,-0.15
2022-11-19T01:03:49.806Z,-0.18
2022-11-19T01:06:19.805Z,-0.20
2022-11-19T01:08:48.790Z,-0.21
2022-11-19T01:11:18.552Z,-0.20
2022-11-19T01:13:46.007Z,-0.22
2022-11-19T01:16:19.202Z,-0.24
2022-11-19T01:18:47.940Z,-0.26
2022-11-19T01:21:15.526Z,-0.27
2022-11-19T01:23:44.135Z,-0.27
2022-11-19T01:26:12.749Z,-0.28
2022-11-19T01:28:39.923Z,-0.30
2022-11-19T01:31:15.082Z,-0.33
2022-11-19T01:33:43.027Z,-0.33
2022-11-19T01:36:19.520Z,-0.34
2022-11-19T01:38:51.240Z,-0.36
2022-11-19T01:41:21.247Z,-0.36
2022-11-19T01:43:50.625Z,-0.37
2022-11-19T01:46:20.311Z,-0.37
2022-11-19T01:49:09.220Z,-0.36
2022-11-19T01:51:39.700Z,-0.35
2022-11-19T01:54:26.691Z,-0.38
2022-11-19T01:57:01.841Z,-0.41
2022-11-19T01:59:31.155Z,-0.43
2022-11-19T02:01:58.509Z,-0.44
2022-11-19T02:04:27.712Z,-0.46
2022-11-19T02:06:55.354Z,-0.47
2022-11-19T02:09:23.110Z,-0.47
2022-11-19T02:12:09.512Z,-0.44
2022-11-19T02:15:05.950Z,-0.40
2022-11-19T02:17:39.168Z,-0.36
2022-11-19T02:20:34.531Z,-0.34
2022-11-19T02:23:22.700Z,-0.33
2022-11-19T02:26:27.804Z,-0.30
2022-11-19T02:29:20.484Z,-0.31
2022-11-19T02:32:13.647Z,-0.34
2022-11-19T02:34:46.610Z,-0.34
2022-11-19T02:37:32.526Z,-0.37
2022-11-19T02:40:09.994Z,-0.40
2022-11-19T02:42:48.613Z,-0.43
2022-11-19T02:45:33.642Z,-0.47
2022-11-19T02:48:06.568Z,-0.48
2022-11-19T02:50:54.222Z,-0.49
2022-11-19T02:53:23.064Z,-0.50
2022-11-19T02:56:09.019Z,-0.51
2022-11-19T02:58:59.554Z,-0.51
2022-11-19T03:01:48.826Z,-0.50
2022-11-19T03:04:30.544Z,-0.52
2022-11-19T03:07:02.583Z,-0.52
2022-11-19T03:09:32.396Z,-0.53
2022-11-19T03:12:08.349Z,-0.54
2022-11-19T03:15:10.780Z,-0.56
2022-11-19T03:17:46.867Z,-0.57
2022-11-19T03:20:28.453Z,-0.56
2022-11-19T03:23:04.909Z,-0.52
2022-11-19T03:25:38.806Z,-0.47
2022-11-19T03:28:12.487Z,-0.40
2022-11-19T03:30:42.655Z,-0.33
2022-11-19T03:33:18.512Z,-0.27
2022-11-19T03:35:51.268Z,-0.23
2022-11-19T03:38:43.327Z,-0.20
2022-11-19T03:41:15.471Z,-0.17
2022-11-19T03:43:46.544Z,-0.17
2022-11-19T03:46:18.618Z,-0.18
2022-11-19T03:48:50.156Z,-0.17
2022-11-19T03:51:36.917Z,-0.17
2022-11-19T03:54:04.517Z,-0.21
2022-11-19T03:56:37.007Z,-0.23
2022-11-19T03:59:08.336Z,-0.27
2022-11-19T04:01:36.905Z,-0.34
2022-11-19T04:04:23.014Z,-0.35
2022-11-19T04:06:50.031Z,-0.35
2022-11-19T04:09:17.386Z,-0.37
2022-11-19T04:14:12.332Z,-0.42
2022-11-19T04:16:39.427Z,-0.41
2022-11-19T04:19:06.524Z,-0.42
2022-11-19T04:21:33.782Z,-0.44
2022-11-19T04:24:00.850Z,-0.47
2022-11-19T04:26:27.925Z,-0.49
2022-11-19T04:28:54.999Z,-0.45
2022-11-19T04:31:22.202Z,-0.41
2022-11-19T04:33:49.197Z,-0.38
2022-11-19T04:36:16.475Z,-0.37
2022-11-19T04:38:46.083Z,-0.36
2022-11-19T04:41:13.122Z,-0.39
2022-11-19T04:43:40.436Z,-0.39
2022-11-19T04:46:07.588Z,-0.39
2022-11-19T04:48:34.692Z,-0.37
2022-11-19T04:51:01.735Z,-0.42
2022-11-19T04:53:28.858Z,-0.47
2022-11-19T04:55:55.855Z,-0.50
2022-11-19T04:58:23.006Z,-0.54
2022-11-19T05:00:50.056Z,-0.56
2022-11-19T05:03:17.130Z,-0.56
2022-11-19T05:05:45.152Z,-0.60
2022-11-19T05:08:12.275Z,-0.62
2022-11-19T05:10:39.245Z,-0.62
2022-11-19T05:13:06.474Z,-0.62
2022-11-19T05:15:33.581Z,-0.66
2022-11-19T05:18:00.520Z,-0.72
2022-11-19T05:20:27.644Z,-0.74
2022-11-19T05:22:55.217Z,-0.70
2022-11-19T05:25:22.304Z,-0.68
2022-11-19T05:27:49.351Z,-0.64
2022-11-19T05:30:17.115Z,-0.63
2022-11-19T05:32:44.216Z,-0.62
2022-11-19T05:35:11.314Z,-0.60
2022-11-19T05:37:40.279Z,-0.62
2022-11-19T05:40:08.661Z,-0.66
2022-11-19T05:42:35.915Z,-0.71
2022-11-19T05:45:03.092Z,-0.71
2022-11-19T05:47:30.112Z,-0.70
2022-11-19T05:49:57.186Z,-0.77
2022-11-19T05:52:25.331Z,-0.85
2022-11-19T05:54:52.358Z,-0.91
2022-11-19T05:57:19.433Z,-0.98
2022-11-19T05:59:46.509Z,-1.02
2022-11-19T06:02:13.774Z,-1.03
2022-11-19T06:04:40.756Z,-1.01
2022-11-19T06:07:07.823Z,-0.94
2022-11-19T06:09:34.928Z,-0.91
2022-11-19T06:12:02.078Z,-0.89
2022-11-19T06:14:29.152Z,-0.88
2022-11-19T06:17:01.392Z,-0.92
2022-11-19T06:19:28.549Z,-0.94
2022-11-19T06:21:55.601Z,-1.02
2022-11-19T06:24:22.625Z,-1.13
2022-11-19T06:26:49.642Z,-1.19
2022-11-19T06:29:18.521Z,-1.25
2022-11-19T06:31:46.119Z,-1.32
2022-11-19T06:34:13.371Z,-1.38
2022-11-19T06:36:44.927Z,-1.41
2022-11-19T06:39:15.379Z,-1.39
2022-11-19T06:41:42.451Z,-1.36
2022-11-19T06:44:09.597Z,-1.38
2022-11-19T06:46:36.651Z,-1.38
2022-11-19T06:49:05.876Z,-1.34
2022-11-19T06:51:33.439Z,-1.23
2022-11-19T06:54:00.512Z,-1.12
2022-11-19T06:56:27.634Z,-1.11
2022-11-19T06:59:00.530Z,-1.14
2022-11-19T07:01:27.612Z,-1.16
2022-11-19T07:03:54.743Z,-1.14
2022-11-19T07:06:21.718Z,-1.10
2022-11-19T07:08:49.226Z,-1.09
2022-11-19T07:11:28.382Z,-1.12
2022-11-19T07:13:59.044Z,-1.13
2022-11-19T07:16:31.232Z,-1.14
2022-11-19T07:19:00.261Z,-1.14
2022-11-19T07:21:28.452Z,-1.18
2022-11-19T07:23:56.651Z,-1.21
2022-11-19T07:26:24.160Z,-1.29
2022-11-19T07:28:51.952Z,-1.33
2022-11-19T07:31:19.205Z,-1.37
2022-11-19T07:33:46.354Z,-1.39
2022-11-19T07:36:18.149Z,-1.41
2022-11-19T07:38:46.467Z,-1.42
2022-11-19T07:41:32.132Z,-1.43
2022-11-19T07:43:59.585Z,-1.45
2022-11-19T07:46:26.684Z,-1.52
2022-11-19T07:48:55.725Z,-1.56
2022-11-19T07:51:24.032Z,-1.54
2022-11-19T07:53:51.491Z,-1.51
2022-11-19T07:56:19.356Z,-1.53
2022-11-19T07:58:46.637Z,-1.55
2022-11-19T08:01:18.519Z,-1.55
2022-11-19T08:03:50.625Z,-1.56
2022-11-19T08:06:21.604Z,-1.53
2022-11-19T08:08:48.634Z,-1.56
2022-11-19T08:11:17.080Z,-1.56
2022-11-19T08:13:44.259Z,-1.55
2022-11-19T08:16:13.986Z,-1.51
2022-11-19T08:18:41.019Z,-1.48
2022-11-19T08:21:10.498Z,-1.51
2022-11-19T08:23:39.288Z,-1.53
2022-11-19T08:26:07.769Z,-1.57
2022-11-19T08:28:35.230Z,-1.55
2022-11-19T08:31:07.986Z,-1.47
2022-11-19T08:33:35.798Z,-1.36
2022-11-19T08:36:03.592Z,-1.24
2022-11-19T08:38:34.489Z,-1.17
2022-11-19T08:41:23.133Z,-1.18
2022-11-19T08:43:50.232Z,-1.18
2022-11-19T08:46:17.238Z,-1.11
2022-11-19T08:48:44.278Z,-1.09
2022-11-19T08:51:13.500Z,-1.15
2022-11-19T08:53:41.218Z,-1.12
2022-11-19T08:56:08.467Z,-1.12
2022-11-19T08:58:36.182Z,-1.15
2022-11-19T09:01:14.023Z,-1.17
2022-11-19T09:03:41.415Z,-1.14
2022-11-19T09:06:09.229Z,-1.17
2022-11-19T09:08:36.649Z,-1.16
2022-11-19T09:11:07.935Z,-1.09
2022-11-19T09:13:35.012Z,-1.01
2022-11-19T09:16:02.302Z,-0.97
2022-11-19T09:18:29.593Z,-0.96
2022-11-19T09:20:57.381Z,-0.97
2022-11-19T09:23:26.530Z,-0.93
2022-11-19T09:26:00.875Z,-0.92
2022-11-19T09:28:29.237Z,-1.00
2022-11-19T09:31:02.265Z,-1.10
2022-11-19T09:33:32.387Z,-1.12
2022-11-19T09:35:59.411Z,-1.11
2022-11-19T09:38:26.842Z,-1.06
2022-11-19T09:40:56.244Z,-1.00
2022-11-19T09:43:45.409Z,-0.88
2022-11-19T09:46:50.997Z,-0.79
2022-11-19T09:49:38.234Z,-0.78
2022-11-19T09:52:10.709Z,-0.76
2022-11-19T09:54:48.512Z,-0.76
2022-11-19T09:57:22.777Z,-0.75
2022-11-19T09:59:52.130Z,-0.75
2022-11-19T10:02:22.102Z,-0.82
2022-11-19T10:04:51.428Z,-0.87
2022-11-19T10:07:34.741Z,-0.92
2022-11-19T10:10:34.315Z,-0.98
2022-11-19T10:13:12.168Z,-0.92
2022-11-19T10:15:57.690Z,-0.76
2022-11-19T10:18:46.083Z,-0.60
2022-11-19T10:21:49.163Z,-0.55
2022-11-19T10:24:29.548Z,-0.51
2022-11-19T10:27:08.420Z,-0.45
2022-11-19T10:29:39.120Z,-0.43
2022-11-19T10:32:21.466Z,-0.49
2022-11-19T10:34:52.404Z,-0.58
2022-11-19T10:37:22.805Z,-0.66
2022-11-19T10:40:19.782Z,-0.72
2022-11-19T10:42:53.792Z,-0.81
2022-11-19T10:45:27.243Z,-0.84
2022-11-19T10:48:24.957Z,-0.85
2022-11-19T10:50:52.442Z,-0.79
2022-11-19T10:53:24.131Z,-0.80
2022-11-19T10:55:55.761Z,-0.81
2022-11-19T10:58:30.430Z,-0.84
2022-11-19T11:01:01.135Z,-0.84
2022-11-19T11:03:38.378Z,-0.83
2022-11-19T11:06:09.984Z,-0.85
2022-11-19T11:08:54.284Z,-0.90
2022-11-19T11:11:50.645Z,-0.90
2022-11-19T11:14:39.532Z,-0.93
2022-11-19T11:17:19.223Z,-0.97
2022-11-19T11:19:58.112Z,-0.94
2022-11-19T11:22:26.045Z,-0.87
2022-11-19T11:24:53.401Z,-0.87
2022-11-19T11:27:33.620Z,-0.87
2022-11-19T11:30:12.948Z,-0.84
2022-11-19T11:32:41.429Z,-0.87
2022-11-19T11:35:32.412Z,-0.90
2022-11-19T11:38:03.966Z,-0.97
2022-11-19T11:40:31.857Z,-1.07
2022-11-19T11:42:59.119Z,-1.11
2022-11-19T11:45:33.557Z,-1.10
2022-11-19T11:48:21.008Z,-1.09
2022-11-19T11:50:48.330Z,-1.00
2022-11-19T11:53:17.869Z,-0.86
2022-11-19T11:55:44.966Z,-0.78
2022-11-19T11:58:32.260Z,-0.73
2022-11-19T12:01:16.010Z,-0.73
2022-11-19T12:03:58.759Z,-0.78
2022-11-19T12:06:41.358Z,-0.80
2022-11-19T12:09:25.331Z,-0.74
2022-11-19T12:12:03.386Z,-0.73
2022-11-19T12:14:36.885Z,-0.76
2022-11-19T12:18:01.030Z,-0.72
2022-11-19T12:20:44.304Z,-0.79
2022-11-19T12:23:11.399Z,-0.83
2022-11-19T12:26:02.179Z,-0.83
2022-11-19T12:28:53.502Z,-0.84
2022-11-19T12:31:52.989Z,-0.80
2022-11-19T12:34:44.938Z,-0.71
2022-11-19T12:37:27.117Z,-0.66
2022-11-19T12:39:59.181Z,-0.65
2022-11-19T12:42:44.993Z,-0.66
2022-11-19T12:45:45.761Z,-0.70
2022-11-19T12:48:32.520Z,-0.69
2022-11-19T12:51:18.766Z,-0.69
2022-11-19T12:53:56.644Z,-0.71
2022-11-19T12:56:32.831Z,-0.69
2022-11-19T12:59:18.652Z,-0.58
2022-11-19T13:01:48.891Z,-0.47
2022-11-19T13:04:15.942Z,-0.47
2022-11-19T13:06:47.829Z,-0.43
2022-11-19T13:09:48.694Z,-0.37
2022-11-19T13:12:40.010Z,-0.31
2022-11-19T13:15:39.470Z,-0.34
2022-11-19T13:18:14.530Z,-0.39
2022-11-19T13:20:49.745Z,-0.38
2022-11-19T13:23:24.500Z,-0.34
2022-11-19T13:26:07.342Z,-0.36
2022-11-19T13:28:47.192Z,-0.37
2022-11-19T13:31:39.088Z,-0.42
2022-11-19T13:34:18.431Z,-0.42
2022-11-19T13:36:57.104Z,-0.39
2022-11-19T13:39:48.984Z,-0.35
2022-11-19T13:42:37.253Z,-0.37
2022-11-19T13:45:04.919Z,-0.42
2022-11-19T13:47:37.803Z,-0.42
2022-11-19T13:50:16.170Z,-0.44
2022-11-19T13:52:52.992Z,-0.43
2022-11-19T13:55:41.468Z,-0.43
2022-11-19T13:58:17.016Z,-0.43
2022-11-19T14:00:54.856Z,-0.48
2022-11-19T14:03:33.896Z,-0.49
2022-11-19T14:06:26.929Z,-0.48
2022-11-19T14:09:44.769Z,-0.50
2022-11-19T14:12:46.101Z,-0.54
2022-11-19T14:15:38.080Z,-0.50
2022-11-19T14:18:38.843Z,-0.48
2022-11-19T14:21:42.804Z,-0.47
2022-11-19T14:24:44.011Z,-0.43
2022-11-19T14:27:20.960Z,-0.45
2022-11-19T14:29:47.999Z,-0.47
2022-11-19T14:32:15.056Z,-0.44
2022-11-19T14:34:46.844Z,-0.41
2022-11-19T14:37:25.134Z,-0.42
2022-11-19T14:40:01.266Z,-0.48
2022-11-19T14:42:28.267Z,-0.49
2022-11-19T14:44:58.253Z,-0.54
2022-11-19T14:47:31.682Z,-0.60
2022-11-19T14:50:02.597Z,-0.72
2022-11-19T14:52:40.125Z,-0.86
2022-11-19T14:55:21.721Z,-1.04
2022-11-19T14:58:16.008Z,-1.19
2022-11-19T15:00:43.261Z,-1.25
2022-11-19T15:03:26.593Z,-1.30
2022-11-19T15:05:54.080Z,-1.42
2022-11-19T15:08:21.129Z,-1.48
2022-11-19T15:11:03.025Z,-1.55
2022-11-19T15:13:32.013Z,-1.59
2022-11-19T15:16:08.226Z,-1.57
2022-11-19T15:18:41.579Z,-1.63
2022-11-19T15:21:42.285Z,-1.71
2022-11-19T15:24:30.659Z,-1.73
2022-11-19T15:27:19.415Z,-1.78
2022-11-19T15:30:18.694Z,-1.75
2022-11-19T15:32:52.380Z,-1.67
2022-11-19T15:35:37.501Z,-1.63
2022-11-19T15:38:20.201Z,-1.57
2022-11-19T15:40:50.119Z,-1.45
2022-11-19T15:43:42.303Z,-1.37
2022-11-19T15:46:14.415Z,-1.26
2022-11-19T15:48:53.126Z,-1.20
2022-11-19T15:51:21.736Z,-1.16
2022-11-19T15:54:02.174Z,-1.18
2022-11-19T15:56:33.701Z,-1.19
2022-11-19T15:59:03.437Z,-1.21
2022-11-19T16:01:36.961Z,-1.20
2022-11-19T16:04:13.125Z,-1.22
2022-11-19T16:06:44.959Z,-1.26
2022-11-19T16:09:20.015Z,-1.26
2022-11-19T16:12:06.244Z,-1.29
2022-11-19T16:14:52.056Z,-1.28
2022-11-19T16:17:43.211Z,-1.28
2022-11-19T16:20:10.951Z,-1.30
2022-11-19T16:22:53.470Z,-1.30
2022-11-19T16:25:30.706Z,-1.26
2022-11-19T16:28:01.032Z,-1.24
2022-11-19T16:30:31.358Z,-1.25
2022-11-19T16:32:59.760Z,-1.29
2022-11-19T16:35:32.084Z,-1.25
2022-11-19T16:38:01.052Z,-1.19
2022-11-19T16:40:49.497Z,-1.12
2022-11-19T16:43:17.156Z,-1.07
2022-11-19T16:45:46.954Z,-1.07
2022-11-19T16:48:39.882Z,-1.05
2022-11-19T16:51:35.327Z,-1.03
2022-11-19T16:54:04.611Z,-1.04
2022-11-19T16:56:40.644Z,-1.04
2022-11-19T16:59:08.077Z,-1.05
2022-11-19T17:01:36.072Z,-1.07
2022-11-19T17:04:07.555Z,-1.10
2022-11-19T17:06:37.181Z,-1.10
2022-11-19T17:09:06.123Z,-1.16
2022-11-19T17:12:09.703Z,-1.20
2022-11-19T17:14:49.120Z,-1.25
2022-11-19T17:17:40.714Z,-1.33
2022-11-19T17:20:27.078Z,-1.42
2022-11-19T17:22:54.536Z,-1.44
2022-11-19T17:25:21.726Z,-1.41
2022-11-19T17:27:55.360Z,-1.44
2022-11-19T17:30:31.207Z,-1.45
2022-11-19T17:33:01.853Z,-1.44
2022-11-19T17:35:34.981Z,-1.47
2022-11-19T17:38:13.151Z,-1.47
2022-11-19T17:40:46.923Z,-1.45
2022-11-19T17:43:33.992Z,-1.50
2022-11-19T17:46:01.038Z,-1.51
2022-11-19T17:48:28.958Z,-1.45
2022-11-19T17:50:56.310Z,-1.40
2022-11-19T17:53:23.974Z,-1.36
2022-11-19T17:55:54.170Z,-1.34
2022-11-19T17:58:21.450Z,-1.32
2022-11-19T18:00:48.976Z,-1.31
2022-11-19T18:03:17.830Z,-1.26
2022-11-19T18:05:49.709Z,-1.24
2022-11-19T18:08:16.759Z,-1.15
2022-11-19T18:10:47.164Z,-1.12
2022-11-19T18:13:19.481Z,-1.10
2022-11-19T18:15:47.017Z,-1.11
2022-11-19T18:18:14.066Z,-1.12
2022-11-19T18:20:41.804Z,-1.14
2022-11-19T18:23:13.415Z,-1.19
2022-11-19T18:25:40.946Z,-1.26
2022-11-19T18:28:08.375Z,-1.29
2022-11-19T18:30:36.181Z,-1.29
2022-11-19T18:33:03.728Z,-1.28
2022-11-19T18:35:32.722Z,-1.22
2022-11-19T18:37:59.795Z,-1.17
2022-11-19T18:40:26.841Z,-1.12
2022-11-19T18:43:12.988Z,-1.10
2022-11-19T18:45:39.985Z,-1.12
2022-11-19T18:48:07.033Z,-1.18
2022-11-19T18:50:54.433Z,-1.23
2022-11-19T18:53:21.431Z,-1.20
2022-11-19T18:55:48.530Z,-1.16
2022-11-19T18:58:15.680Z,-1.15
2022-11-19T19:00:43.196Z,-1.17
2022-11-19T19:03:13.749Z,-1.13
2022-11-19T19:05:40.896Z,-1.12
2022-11-19T19:08:08.326Z,-1.06
2022-11-19T19:10:35.656Z,-1.00
2022-11-19T19:13:02.553Z,-1.01
2022-11-19T19:15:29.611Z,-0.99
2022-11-19T19:17:56.698Z,-0.97
2022-11-19T19:20:23.850Z,-1.00
2022-11-19T19:22:50.898Z,-1.02
2022-11-19T19:25:17.985Z,-1.05
2022-11-19T19:27:45.558Z,-1.07
2022-11-19T19:30:13.010Z,-1.06
2022-11-19T19:32:40.089Z,-1.06
2022-11-19T19:35:07.653Z,-1.10
2022-11-19T19:37:34.745Z,-1.05
2022-11-19T19:40:02.003Z,-1.03
2022-11-19T19:42:29.188Z,-1.00
2022-11-19T19:44:56.253Z,-0.93
2022-11-19T19:47:23.229Z,-0.92
2022-11-19T19:49:50.347Z,-0.90
2022-11-19T19:52:17.420Z,-0.90
2022-11-19T19:54:44.600Z,-0.88
2022-11-19T19:57:12.082Z,-0.89
2022-11-19T19:59:39.128Z,-0.91
2022-11-19T20:02:06.647Z,-0.90
2022-11-19T20:04:33.821Z,-0.90
2022-11-19T20:07:00.783Z,-0.90
2022-11-19T20:09:28.180Z,-0.96
2022-11-19T20:11:55.497Z,-0.98
2022-11-19T20:14:22.724Z,-1.01
2022-11-19T20:16:50.133Z,-0.96
2022-11-19T20:19:17.330Z,-0.91
2022-11-19T20:21:44.430Z,-0.91
2022-11-19T20:24:13.509Z,-0.98
2022-11-19T20:26:42.249Z,-1.03
2022-11-19T20:29:14.129Z,-1.10
2022-11-19T20:31:45.375Z,-1.10
2022-11-19T20:34:13.117Z,-1.16
2022-11-19T20:36:40.753Z,-1.22
2022-11-19T20:39:08.001Z,-1.26
2022-11-19T20:41:54.532Z,-1.24
2022-11-19T20:44:22.353Z,-1.24
2022-11-19T20:46:58.521Z,-1.26
2022-11-19T20:49:28.145Z,-1.23
2022-11-19T20:51:55.686Z,-1.22
2022-11-19T20:54:23.854Z,-1.19
2022-11-19T20:56:52.541Z,-1.18
2022-11-19T20:59:20.390Z,-1.17
2022-11-19T21:01:49.619Z,-1.20
2022-11-19T21:04:18.010Z,-1.22
2022-11-19T21:06:45.497Z,-1.19
2022-11-19T21:09:13.130Z,-1.16
2022-11-19T21:11:40.289Z,-1.16
2022-11-19T21:14:07.840Z,-1.13
2022-11-19T21:16:35.043Z,-1.11
2022-11-19T21:19:02.194Z,-1.11
2022-11-19T21:21:29.397Z,-1.08
2022-11-19T21:23:56.735Z,-1.06
2022-11-19T21:26:26.387Z,-1.05
2022-11-19T21:28:56.252Z,-1.02
2022-11-19T21:31:38.230Z,-1.02
2022-11-19T21:34:10.521Z,-1.02
2022-11-19T21:36:38.384Z,-1.01
2022-11-19T21:39:06.840Z,-0.99
2022-11-19T21:41:34.708Z,-1.01
2022-11-19T21:44:03.011Z,-1.06
2022-11-19T21:46:30.040Z,-1.08
2022-11-19T21:48:57.083Z,-1.06
2022-11-19T21:51:25.207Z,-0.98
2022-11-19T21:53:57.067Z,-0.91
2022-11-19T21:56:25.471Z,-0.87
2022-11-19T21:58:52.527Z,-0.87
2022-11-19T22:01:19.956Z,-0.87
2022-11-19T22:03:47.319Z,-0.85
2022-11-19T22:06:14.913Z,-0.85
2022-11-19T22:08:43.018Z,-0.89
2022-11-19T22:11:30.420Z,-0.93
2022-11-19T22:13:59.691Z,-0.97
2022-11-19T22:16:27.405Z,-0.99
2022-11-19T22:18:54.456Z,-1.00
2022-11-19T22:21:21.553Z,-1.00
2022-11-19T22:23:48.661Z,-0.96
2022-11-19T22:26:15.752Z,-0.95
2022-11-19T22:28:42.831Z,-0.89
2022-11-19T22:31:10.487Z,-0.85
2022-11-19T22:33:39.660Z,-0.84
2022-11-19T22:36:10.281Z,-0.81
2022-11-19T22:38:39.220Z,-0.75
2022-11-19T22:41:09.586Z,-0.71
2022-11-19T22:43:37.427Z,-0.71
2022-11-19T22:46:05.578Z,-0.72
2022-11-19T22:48:33.444Z,-0.77
2022-11-19T22:51:06.022Z,-0.79
2022-11-19T22:53:35.273Z,-0.77
2022-11-19T22:56:06.850Z,-0.77
2022-11-19T22:58:34.635Z,-0.80
2022-11-19T23:01:01.841Z,-0.81
2022-11-19T23:03:29.046Z,-0.83
2022-11-19T23:05:56.605Z,-0.81
2022-11-19T23:08:23.674Z,-0.80
2022-11-19T23:11:00.968Z,-0.76
2022-11-19T23:13:33.245Z,-0.70
2022-11-19T23:16:14.186Z,-0.68
2022-11-19T23:18:46.472Z,-0.66
2022-11-19T23:21:16.246Z,-0.62
2022-11-19T23:23:43.525Z,-0.61
2022-11-19T23:26:13.415Z,-0.64
2022-11-19T23:28:40.570Z,-0.67
2022-11-19T23:31:13.323Z,-0.67
2022-11-19T23:33:41.251Z,-0.68
2022-11-19T23:36:12.360Z,-0.66
2022-11-19T23:38:40.279Z,-0.66
2022-11-19T23:41:09.270Z,-0.71
2022-11-19T23:43:37.041Z,-0.72
2022-11-19T23:46:10.790Z,-0.74
2022-11-19T23:48:39.861Z,-0.77
2022-11-19T23:51:14.647Z,-0.78
2022-11-19T23:53:42.840Z,-0.83
2022-11-19T23:56:11.327Z,-0.83
2022-11-19T23:58:38.913Z,-0.81
